Time;durP1;ratioP1;P1;durP2;ratioP2;P2;SDS_P1;SDS_P2;PMS_P1;PMS_P2;Temp;Humidity;BMP_temperature;BMP_pressure;BME280_temperature;BME280_humidity;BME280_pressure;Samples;Min_cycle;Max_cycle;Signal;HPM_P1;HPM_P2
2022/02/27 00:01:11;;;;;;;;;37.50;29.75;;;;;;;;5038867;28;51136;-51
2022/02/27 00:03:58;;;;;;;;;28.50;23.00;;;;;;;;5032181;28;51069;-48
2022/02/27 00:06:43;;;;;;;;;26.00;21.50;;;;;;;;5055629;28;51349;-50
2022/02/27 00:09:29;;;;;;;;;27.50;24.75;;;;;;;;5043461;28;51187;-45
2022/02/27 00:12:13;;;;;;;;;34.00;26.50;;;;;;;;5040295;28;51361;-50
2022/02/27 00:14:58;;;;;;;;;32.25;26.50;;;;;;;;5040277;28;51267;-47
2022/02/27 00:17:43;;;;;;;;;26.75;21.75;;;;;;;;5042787;28;51093;-52
2022/02/27 00:20:28;;;;;;;;;31.25;24.25;;;;;;;;5051007;28;51080;-54
2022/02/27 00:23:15;;;;;;;;;34.75;26.25;;;;;;;;5040118;28;51056;-51
2022/02/27 00:26:01;;;;;;;;;30.75;24.50;;;;;;;;5041280;28;51527;-54
2022/02/27 00:28:45;;;;;;;;;30.50;19.50;;;;;;;;5040488;28;51588;-55
2022/02/27 00:31:31;;;;;;;;;4.25;4.25;;;;;;;;5043093;28;52055;-49
2022/02/27 00:34:15;;;;;;;;;39.75;27.50;;;;;;;;5044815;28;51117;-49
2022/02/27 00:37:01;;;;;;;;;37.00;28.50;;;;;;;;5046559;28;51388;-53
2022/02/27 00:39:57;;;;;;;;;33.50;27.00;;;;;;;;5046950;28;51526;-54
2022/02/27 00:42:42;;;;;;;;;34.75;27.25;;;;;;;;5054761;28;51500;-51
2022/02/27 00:45:28;;;;;;;;;39.50;26.75;;;;;;;;5032502;28;51082;-51
2022/02/27 00:48:12;;;;;;;;;34.00;24.75;;;;;;;;5049044;28;51112;-51
2022/02/27 00:51:06;;;;;;;;;31.00;25.00;;;;;;;;5042480;28;51105;-51
2022/02/27 00:53:51;;;;;;;;;36.00;26.75;;;;;;;;5042632;28;51096;-49
2022/02/27 00:56:35;;;;;;;;;29.50;25.00;;;;;;;;5042479;28;51092;-48
2022/02/27 00:59:19;;;;;;;;;29.00;18.50;;;;;;;;5052590;28;51662;-54
2022/02/27 01:02:16;;;;;;;;;36.50;25.50;;;;;;;;5051646;28;51333;-51
2022/02/27 01:05:02;;;;;;;;;29.25;24.25;;;;;;;;5042197;28;51113;-54
2022/02/27 01:07:47;;;;;;;;;33.75;25.75;;;;;;;;5042312;28;51578;-56
2022/02/27 01:10:33;;;;;;;;;35.50;26.25;;;;;;;;5041731;28;51187;-54
2022/02/27 01:13:29;;;;;;;;;30.00;23.25;;;;;;;;5047412;28;51167;-50
2022/02/27 01:16:26;;;;;;;;;30.75;24.50;;;;;;;;5043931;28;51232;-53
2022/02/27 01:19:11;;;;;;;;;34.00;25.75;;;;;;;;5043909;28;51136;-46
2022/02/27 01:22:00;;;;;;;;;32.50;25.00;;;;;;;;5049107;28;51584;-48
2022/02/27 01:25:05;;;;;;;;;27.75;23.50;;;;;;;;5046836;28;51074;-52
2022/02/27 01:27:53;;;;;;;;;36.00;26.50;;;;;;;;5038177;28;51332;-54
2022/02/27 01:30:38;;;;;;;;;29.00;23.50;;;;;;;;5042713;28;51052;-57
2022/02/27 01:33:23;;;;;;;;;34.25;26.50;;;;;;;;5043065;28;51357;-52
2022/02/27 01:36:12;;;;;;;;;38.25;26.25;;;;;;;;5042086;28;51117;-49
2022/02/27 01:39:06;;;;;;;;;29.00;24.75;;;;;;;;5057703;28;51124;-56
2022/02/27 01:41:50;;;;;;;;;35.75;27.50;;;;;;;;5043291;28;52083;-50
2022/02/27 01:44:37;;;;;;;;;34.00;22.75;;;;;;;;5046887;28;51023;-48
2022/02/27 01:47:32;;;;;;;;;29.00;21.25;;;;;;;;5041630;28;51116;-49
2022/02/27 01:50:17;;;;;;;;;34.75;23.50;;;;;;;;5043297;28;51107;-51
2022/02/27 01:53:03;;;;;;;;;34.50;25.25;;;;;;;;5045621;28;52639;-54
2022/02/27 01:55:50;;;;;;;;;26.50;22.75;;;;;;;;5043824;28;51078;-48
2022/02/27 01:58:34;;;;;;;;;29.75;23.25;;;;;;;;5043849;28;51030;-50
2022/02/27 02:01:19;;;;;;;;;35.00;25.00;;;;;;;;5047794;28;51185;-50
2022/02/27 02:04:04;;;;;;;;;34.75;25.75;;;;;;;;5043746;28;51144;-50
2022/02/27 02:06:51;;;;;;;;;25.25;23.50;;;;;;;;5043396;28;51183;-53
2022/02/27 02:09:36;;;;;;;;;28.75;24.25;;;;;;;;5045650;28;51205;-47
2022/02/27 02:12:38;;;;;;;;;38.00;27.00;;;;;;;;5040796;28;51159;-50
2022/02/27 02:15:24;;;;;;;;;28.75;20.00;;;;;;;;5044977;28;51270;-49
2022/02/27 02:18:11;;;;;;;;;37.00;25.25;;;;;;;;5044577;28;51380;-53
2022/02/27 02:20:56;;;;;;;;;39.50;27.00;;;;;;;;5040751;28;51048;-51
2022/02/27 02:23:40;;;;;;;;;25.25;21.75;;;;;;;;5041291;28;51203;-51
2022/02/27 02:26:25;;;;;;;;;30.75;26.75;;;;;;;;5043524;28;51165;-47
2022/02/27 02:29:12;;;;;;;;;30.50;23.50;;;;;;;;5040666;28;50986;-54
2022/02/27 02:32:02;;;;;;;;;34.50;27.50;;;;;;;;5040891;28;51151;-53
2022/02/27 02:34:50;;;;;;;;;33.25;25.00;;;;;;;;5041014;28;51111;-58
2022/02/27 02:37:35;;;;;;;;;37.25;25.50;;;;;;;;5041611;28;51183;-48
2022/02/27 02:40:27;;;;;;;;;31.75;26.00;;;;;;;;5040584;28;51051;-49
2022/02/27 02:43:21;;;;;;;;;26.00;22.00;;;;;;;;5031389;28;51167;-51
2022/02/27 02:46:05;;;;;;;;;28.75;25.00;;;;;;;;5040337;28;50958;-50
2022/02/27 02:48:50;;;;;;;;;26.25;21.50;;;;;;;;5042388;28;51225;-46
2022/02/27 02:51:36;;;;;;;;;31.25;22.50;;;;;;;;5040927;28;51088;-51
2022/02/27 02:54:20;;;;;;;;;39.00;26.50;;;;;;;;5041585;28;51104;-54
2022/02/27 02:57:04;;;;;;;;;30.75;23.25;;;;;;;;5048385;28;51345;-51
2022/02/27 02:59:55;;;;;;;;;29.25;22.75;;;;;;;;5048685;28;51160;-54
2022/02/27 03:02:39;;;;;;;;;29.75;25.50;;;;;;;;5042371;28;51342;-46
2022/02/27 03:05:25;;;;;;;;;33.50;24.50;;;;;;;;5041672;28;51523;-53
2022/02/27 03:08:10;;;;;;;;;30.75;24.25;;;;;;;;5055988;28;51221;-47
2022/02/27 03:10:57;;;;;;;;;34.25;25.75;;;;;;;;5039764;28;51157;-49
2022/02/27 03:13:43;;;;;;;;;29.00;21.25;;;;;;;;5039676;28;51090;-50
2022/02/27 03:16:31;;;;;;;;;27.25;21.50;;;;;;;;5039406;28;51185;-53
2022/02/27 03:19:19;;;;;;;;;33.00;24.25;;;;;;;;5045489;28;51267;-54
2022/02/27 03:22:04;;;;;;;;;24.50;21.25;;;;;;;;5039879;28;51473;-51
2022/02/27 03:24:49;;;;;;;;;30.00;25.25;;;;;;;;5039500;28;51017;-54
2022/02/27 03:27:35;;;;;;;;;29.00;22.00;;;;;;;;5045622;28;51095;-51
2022/02/27 03:30:22;;;;;;;;;24.50;14.00;;;;;;;;5042893;28;51167;-50
2022/02/27 03:33:17;;;;;;;;;32.75;23.75;;;;;;;;5043047;28;51154;-50
2022/02/27 03:36:02;;;;;;;;;28.00;21.00;;;;;;;;5040023;28;51510;-49
2022/02/27 03:38:47;;;;;;;;;29.25;21.00;;;;;;;;5039341;28;51187;-55
2022/02/27 03:41:38;;;;;;;;;32.25;21.75;;;;;;;;5039059;28;51194;-47
2022/02/27 03:44:23;;;;;;;;;22.00;18.25;;;;;;;;5044053;28;51124;-53
2022/02/27 03:47:10;;;;;;;;;29.50;26.50;;;;;;;;5042724;28;51462;-52
2022/02/27 03:49:54;;;;;;;;;36.75;28.00;;;;;;;;5039033;28;51150;-48
2022/02/27 03:52:45;;;;;;;;;31.50;24.75;;;;;;;;5040113;28;51053;-48
2022/02/27 03:55:39;;;;;;;;;34.25;26.75;;;;;;;;5039326;28;51010;-51
2022/02/27 03:58:26;;;;;;;;;38.25;26.25;;;;;;;;5042090;28;50975;-50
2022/02/27 04:01:11;;;;;;;;;35.25;24.25;;;;;;;;5052860;28;51409;-53
2022/02/27 04:04:05;;;;;;;;;35.50;26.00;;;;;;;;5038216;28;51526;-51
2022/02/27 04:06:53;;;;;;;;;33.25;22.25;;;;;;;;5040955;28;51097;-51
2022/02/27 04:09:37;;;;;;;;;26.00;22.00;;;;;;;;5039358;28;51209;-51
2022/02/27 04:12:22;;;;;;;;;32.25;24.00;;;;;;;;5041188;28;51385;-56
2022/02/27 04:15:07;;;;;;;;;32.25;25.75;;;;;;;;5041316;28;51166;-55
2022/02/27 04:17:56;;;;;;;;;27.75;23.50;;;;;;;;5040104;28;51101;-56
2022/02/27 04:20:40;;;;;;;;;32.00;27.50;;;;;;;;5039010;28;51028;-54
2022/02/27 04:23:24;;;;;;;;;34.75;24.25;;;;;;;;5040572;28;51042;-50
2022/02/27 04:26:09;;;;;;;;;34.75;26.50;;;;;;;;5039096;28;51210;-52
2022/02/27 04:28:54;;;;;;;;;30.25;23.75;;;;;;;;5049539;28;51407;-55
2022/02/27 04:31:38;;;;;;;;;33.75;26.75;;;;;;;;5052777;28;51127;-50
2022/02/27 04:34:23;;;;;;;;;37.50;28.25;;;;;;;;5039289;28;51384;-51
2022/02/27 04:37:10;;;;;;;;;34.50;24.25;;;;;;;;5046123;28;51219;-51
2022/02/27 04:39:57;;;;;;;;;32.00;23.75;;;;;;;;5037780;28;51287;-51
2022/02/27 04:42:42;;;;;;;;;33.50;25.00;;;;;;;;5050544;28;51053;-48
2022/02/27 04:45:26;;;;;;;;;37.75;27.25;;;;;;;;5038649;28;51049;-53
2022/02/27 04:48:13;;;;;;;;;37.50;27.75;;;;;;;;5044918;28;51414;-54
2022/02/27 04:50:59;;;;;;;;;33.75;25.00;;;;;;;;5053105;28;51191;-53
2022/02/27 04:53:45;;;;;;;;;35.75;28.25;;;;;;;;5042635;28;51172;-59
2022/02/27 04:56:32;;;;;;;;;32.25;22.75;;;;;;;;5038213;28;51130;-51
2022/02/27 04:59:17;;;;;;;;;31.50;25.25;;;;;;;;5038677;28;51123;-46
2022/02/27 05:02:01;;;;;;;;;32.00;26.25;;;;;;;;5038069;28;51546;-48
2022/02/27 05:04:48;;;;;;;;;29.00;21.25;;;;;;;;5042131;28;51110;-49
2022/02/27 05:07:34;;;;;;;;;23.25;23.25;;;;;;;;5028304;28;51144;-54
2022/02/27 05:10:21;;;;;;;;;31.75;23.75;;;;;;;;5043555;28;51004;-49
2022/02/27 05:13:08;;;;;;;;;31.25;22.25;;;;;;;;5058343;28;51186;-51
2022/02/27 05:15:54;;;;;;;;;39.00;28.25;;;;;;;;5059620;28;51105;-47
2022/02/27 05:18:38;;;;;;;;;32.50;24.75;;;;;;;;5062085;28;51164;-50
2022/02/27 05:21:22;;;;;;;;;37.50;28.25;;;;;;;;5061950;28;51159;-49
2022/02/27 05:24:10;;;;;;;;;40.25;27.50;;;;;;;;5062315;28;51075;-51
2022/02/27 05:26:54;;;;;;;;;34.75;24.00;;;;;;;;5061006;28;51528;-50
2022/02/27 05:29:38;;;;;;;;;31.50;24.00;;;;;;;;5061816;28;51146;-47
2022/02/27 05:32:24;;;;;;;;;35.25;25.25;;;;;;;;5061892;28;51019;-50
2022/02/27 05:35:10;;;;;;;;;39.00;31.25;;;;;;;;5061818;28;51118;-46
2022/02/27 05:37:57;;;;;;;;;38.25;30.25;;;;;;;;5055370;28;51431;-57
2022/02/27 05:40:42;;;;;;;;;31.75;23.75;;;;;;;;5059491;28;51403;-52
2022/02/27 05:43:27;;;;;;;;;37.50;27.50;;;;;;;;5041678;28;51089;-53
2022/02/27 05:46:21;;;;;;;;;35.75;26.25;;;;;;;;5041399;28;51651;-48
2022/02/27 05:49:05;;;;;;;;;41.25;26.75;;;;;;;;5041368;28;51208;-54
2022/02/27 05:51:53;;;;;;;;;30.50;23.75;;;;;;;;5060241;28;51160;-47
2022/02/27 05:54:49;;;;;;;;;33.00;26.25;;;;;;;;5060743;28;51194;-52
2022/02/27 05:57:34;;;;;;;;;36.75;27.75;;;;;;;;5056744;28;51116;-46
2022/02/27 06:00:24;;;;;;;;;36.25;30.50;;;;;;;;5046832;28;51227;-47
2022/02/27 06:03:11;;;;;;;;;28.25;22.75;;;;;;;;5057831;28;51095;-52
2022/02/27 06:06:33;;;;;;;;;40.75;31.75;;;;;;;;5051992;28;51255;-53
2022/02/27 06:09:18;;;;;;;;;33.75;28.25;;;;;;;;5060294;28;51621;-55
2022/02/27 06:12:03;;;;;;;;;33.75;27.50;;;;;;;;5059618;28;51054;-51
2022/02/27 06:14:49;;;;;;;;;37.75;27.00;;;;;;;;5041108;28;51092;-47
2022/02/27 06:17:33;;;;;;;;;28.00;25.75;;;;;;;;5040630;28;51116;-51
2022/02/27 06:20:18;;;;;;;;;24.00;16.50;;;;;;;;5040599;28;51714;-53
2022/02/27 06:23:04;;;;;;;;;35.00;30.00;;;;;;;;5040439;28;51000;-48
2022/02/27 06:25:50;;;;;;;;;44.25;30.25;;;;;;;;5041247;28;51143;-52
2022/02/27 06:28:36;;;;;;;;;41.25;33.50;;;;;;;;5039574;28;51326;-49
2022/02/27 06:31:20;;;;;;;;;48.75;35.75;;;;;;;;5060289;28;51559;-48
2022/02/27 06:34:12;;;;;;;;;44.50;32.75;;;;;;;;5035681;28;51563;-53
2022/02/27 06:36:58;;;;;;;;;47.25;33.75;;;;;;;;5059931;28;51117;-53
2022/02/27 06:39:42;;;;;;;;;38.50;30.00;;;;;;;;5051411;28;51174;-52
2022/02/27 06:42:28;;;;;;;;;35.25;28.50;;;;;;;;5047855;28;51379;-55
2022/02/27 06:45:13;;;;;;;;;41.00;31.00;;;;;;;;5039227;28;51440;-51
2022/02/27 06:47:58;;;;;;;;;42.75;31.00;;;;;;;;5039298;28;51192;-52
2022/02/27 06:50:44;;;;;;;;;43.25;34.25;;;;;;;;5038964;28;51547;-48
2022/02/27 06:53:30;;;;;;;;;48.00;35.50;;;;;;;;5050800;28;51120;-51
2022/02/27 06:56:18;;;;;;;;;48.25;34.75;;;;;;;;5039484;28;51132;-53
2022/02/27 06:59:04;;;;;;;;;48.00;34.50;;;;;;;;5039536;28;51236;-57
2022/02/27 07:01:52;;;;;;;;;43.75;31.75;;;;;;;;5038508;28;51247;-50
2022/02/27 07:04:59;;;;;;;;;43.25;31.00;;;;;;;;5039118;28;51378;-51
2022/02/27 07:07:55;;;;;;;;;38.25;30.00;;;;;;;;5040998;28;52464;-53
2022/02/27 07:10:39;;;;;;;;;46.50;35.25;;;;;;;;5056381;28;51518;-52
2022/02/27 07:13:30;;;;;;;;;39.75;30.00;;;;;;;;5039491;28;51435;-52
2022/02/27 07:16:16;;;;;;;;;44.25;32.25;;;;;;;;5044752;28;51146;-49
2022/02/27 07:19:00;;;;;;;;;40.25;30.25;;;;;;;;5039097;28;51172;-52
2022/02/27 07:21:44;;;;;;;;;42.25;28.25;;;;;;;;5038616;28;51135;-49
2022/02/27 07:24:31;;;;;;;;;37.00;29.75;;;;;;;;5038717;28;51429;-52
2022/02/27 07:27:18;;;;;;;;;35.25;27.25;;;;;;;;5038548;28;51545;-54
2022/02/27 07:30:04;;;;;;;;;35.50;29.25;;;;;;;;5038958;28;51231;-51
2022/02/27 07:32:55;;;;;;;;;33.75;24.25;;;;;;;;5038155;28;51342;-48
2022/02/27 07:35:51;;;;;;;;;34.00;27.25;;;;;;;;5041706;28;51617;-54
2022/02/27 07:38:36;;;;;;;;;33.75;23.50;;;;;;;;5041630;28;51159;-51
2022/02/27 07:41:24;;;;;;;;;36.75;28.75;;;;;;;;5039623;28;51087;-52
2022/02/27 07:44:13;;;;;;;;;30.25;26.00;;;;;;;;5039206;28;51114;-51
2022/02/27 07:47:13;;;;;;;;;38.25;28.75;;;;;;;;5041013;28;51165;-46
2022/02/27 07:50:04;;;;;;;;;49.75;37.75;;;;;;;;5039146;28;51163;-53
2022/02/27 07:52:48;;;;;;;;;56.00;43.00;;;;;;;;5039026;28;51156;-50
2022/02/27 07:55:32;;;;;;;;;55.75;40.75;;;;;;;;5050509;28;52187;-53
2022/02/27 07:58:20;;;;;;;;;53.75;39.25;;;;;;;;5038027;28;51178;-55
2022/02/27 08:01:05;;;;;;;;;46.50;34.25;;;;;;;;5038167;28;51664;-51
2022/02/27 08:03:49;;;;;;;;;45.00;31.00;;;;;;;;5041612;28;51112;-55
2022/02/27 08:06:49;;;;;;;;;40.75;29.25;;;;;;;;5040166;28;51135;-48
2022/02/27 08:09:34;;;;;;;;;46.75;35.25;;;;;;;;5038933;28;51555;-49
2022/02/27 08:12:22;;;;;;;;;39.75;29.75;;;;;;;;5041149;28;51185;-56
2022/02/27 08:15:06;;;;;;;;;34.00;27.50;;;;;;;;5038800;28;51013;-49
2022/02/27 08:18:01;;;;;;;;;43.00;36.25;;;;;;;;5038851;28;51752;-55
2022/02/27 08:20:45;;;;;;;;;44.25;33.25;;;;;;;;5041490;28;51345;-56
2022/02/27 08:23:35;;;;;;;;;42.50;31.50;;;;;;;;5059070;28;51244;-50
2022/02/27 08:26:40;;;;;;;;;40.25;28.50;;;;;;;;5059358;28;51523;-54
2022/02/27 08:29:27;;;;;;;;;36.75;27.75;;;;;;;;5053657;28;51080;-46
2022/02/27 08:32:12;;;;;;;;;26.75;23.50;;;;;;;;5038865;28;51420;-51
2022/02/27 08:35:02;;;;;;;;;36.00;28.00;;;;;;;;5038576;28;51477;-51
2022/02/27 08:37:47;;;;;;;;;32.50;27.50;;;;;;;;5038638;28;51166;-52
2022/02/27 08:40:34;;;;;;;;;31.75;28.00;;;;;;;;5038709;28;51136;-53
2022/02/27 08:43:21;;;;;;;;;33.25;27.00;;;;;;;;5036348;28;51198;-48
2022/02/27 08:46:05;;;;;;;;;38.00;26.75;;;;;;;;5026489;28;51088;-52
2022/02/27 08:48:49;;;;;;;;;32.00;27.75;;;;;;;;5038607;28;51575;-46
2022/02/27 08:51:36;;;;;;;;;41.50;32.50;;;;;;;;5053829;28;51028;-52
2022/02/27 08:54:21;;;;;;;;;36.25;28.75;;;;;;;;5055266;28;51165;-51
2022/02/27 08:57:05;;;;;;;;;28.25;23.75;;;;;;;;5042103;28;51499;-52
2022/02/27 08:59:52;;;;;;;;;34.75;25.25;;;;;;;;5040313;28;51345;-50
2022/02/27 09:02:38;;;;;;;;;35.75;26.00;;;;;;;;5041738;28;51132;-49
2022/02/27 09:05:25;;;;;;;;;26.00;26.00;;;;;;;;5041874;28;51125;-54
2022/02/27 09:08:12;;;;;;;;;35.50;22.75;;;;;;;;5041100;28;51078;-48
2022/02/27 09:10:58;;;;;;;;;32.50;25.50;;;;;;;;5042163;28;51191;-52
2022/02/27 09:13:53;;;;;;;;;31.00;25.50;;;;;;;;5041722;28;51243;-50
2022/02/27 09:16:37;;;;;;;;;29.00;22.50;;;;;;;;5041713;28;51115;-52
2022/02/27 09:19:22;;;;;;;;;38.75;28.25;;;;;;;;5042447;28;51057;-51
2022/02/27 09:22:07;;;;;;;;;34.50;26.00;;;;;;;;5041784;28;51176;-47
2022/02/27 09:24:52;;;;;;;;;32.75;23.75;;;;;;;;5041971;28;51943;-52
2022/02/27 09:27:41;;;;;;;;;30.75;21.75;;;;;;;;5041850;28;51096;-53
2022/02/27 09:30:26;;;;;;;;;23.50;22.50;;;;;;;;5029864;28;52334;-50
2022/02/27 09:33:10;;;;;;;;;29.00;24.75;;;;;;;;5040923;28;51079;-50
2022/02/27 09:35:55;;;;;;;;;28.25;21.75;;;;;;;;5043555;28;51062;-52
2022/02/27 09:38:41;;;;;;;;;26.75;21.50;;;;;;;;5060908;28;51182;-51
2022/02/27 09:41:25;;;;;;;;;23.50;17.00;;;;;;;;5053853;28;51512;-54
2022/02/27 09:44:12;;;;;;;;;25.25;23.50;;;;;;;;5040793;28;51453;-55
2022/02/27 09:46:58;;;;;;;;;30.50;23.00;;;;;;;;5043125;28;51097;-50
2022/02/27 09:49:49;;;;;;;;;30.25;23.50;;;;;;;;5050340;28;51432;-54
2022/02/27 09:52:34;;;;;;;;;28.50;21.25;;;;;;;;5040575;28;51082;-49
2022/02/27 09:55:20;;;;;;;;;27.50;22.75;;;;;;;;5046720;28;51343;-48
2022/02/27 09:58:06;;;;;;;;;25.50;23.00;;;;;;;;5039834;28;51160;-49
2022/02/27 10:00:50;;;;;;;;;29.00;21.75;;;;;;;;5040255;28;51168;-50
2022/02/27 10:03:36;;;;;;;;;30.00;22.75;;;;;;;;5039629;28;51002;-56
2022/02/27 10:06:22;;;;;;;;;26.75;19.00;;;;;;;;5040272;28;51535;-51
2022/02/27 10:09:13;;;;;;;;;24.75;19.75;;;;;;;;5039678;28;51555;-54
2022/02/27 10:12:17;;;;;;;;;23.50;19.75;;;;;;;;5040190;28;51220;-55
2022/02/27 10:15:06;;;;;;;;;25.25;21.50;;;;;;;;5040032;28;51298;-54
2022/02/27 10:17:53;;;;;;;;;30.50;22.00;;;;;;;;5038958;28;51399;-55
2022/02/27 10:20:38;;;;;;;;;24.25;18.50;;;;;;;;5039937;28;51183;-56
2022/02/27 10:23:24;;;;;;;;;22.00;18.75;;;;;;;;5057142;28;51162;-53
2022/02/27 10:26:23;;;;;;;;;28.75;18.25;;;;;;;;5059239;28;51219;-52
2022/02/27 10:29:11;;;;;;;;;23.50;19.00;;;;;;;;5057144;28;51162;-51
2022/02/27 10:32:01;;;;;;;;;26.50;20.75;;;;;;;;5040817;28;51629;-51
2022/02/27 10:34:46;;;;;;;;;23.00;18.75;;;;;;;;5039008;28;51132;-47
2022/02/27 10:37:32;;;;;;;;;22.25;20.00;;;;;;;;5039146;28;51445;-55
2022/02/27 10:40:31;;;;;;;;;23.50;20.25;;;;;;;;5039455;28;51345;-51
2022/02/27 10:43:18;;;;;;;;;30.50;19.75;;;;;;;;5038736;28;51203;-51
2022/02/27 10:46:04;;;;;;;;;24.50;18.75;;;;;;;;5038848;28;51518;-54
2022/02/27 10:48:50;;;;;;;;;21.25;17.75;;;;;;;;5040051;28;51500;-53
2022/02/27 10:51:42;;;;;;;;;23.00;18.75;;;;;;;;5041813;28;51210;-52
2022/02/27 10:54:39;;;;;;;;;22.50;18.25;;;;;;;;5060059;28;51487;-55
2022/02/27 10:57:31;;;;;;;;;26.00;17.25;;;;;;;;5059411;28;51557;-54
2022/02/27 11:00:38;;;;;;;;;26.50;15.50;;;;;;;;5049312;28;51472;-54
2022/02/27 11:03:32;;;;;;;;;30.25;21.75;;;;;;;;5039743;28;51151;-56
2022/02/27 11:06:19;;;;;;;;;24.75;20.00;;;;;;;;5040598;28;51634;-50
2022/02/27 11:09:04;;;;;;;;;25.00;19.50;;;;;;;;5056943;28;51169;-55
2022/02/27 11:11:49;;;;;;;;;29.00;19.75;;;;;;;;5056043;28;51151;-51
2022/02/27 11:14:36;;;;;;;;;30.00;22.00;;;;;;;;5059197;28;51188;-53
2022/02/27 11:17:23;;;;;;;;;29.00;21.50;;;;;;;;5058971;28;51119;-52
2022/02/27 11:20:08;;;;;;;;;34.25;30.25;;;;;;;;5059605;28;51010;-53
2022/02/27 11:23:05;;;;;;;;;29.75;23.50;;;;;;;;5059814;28;51736;-48
2022/02/27 11:26:00;;;;;;;;;29.25;20.00;;;;;;;;5040863;28;51399;-54
2022/02/27 11:28:45;;;;;;;;;24.25;20.00;;;;;;;;5040934;28;51200;-49
2022/02/27 11:31:31;;;;;;;;;25.25;19.75;;;;;;;;5038256;28;51880;-50
2022/02/27 11:34:16;;;;;;;;;5.25;3.25;;;;;;;;5039115;28;51114;-55
2022/02/27 11:37:00;;;;;;;;;33.75;25.00;;;;;;;;5039624;28;51584;-54
2022/02/27 11:40:28;;;;;;;;;28.00;20.25;;;;;;;;5038953;28;51198;-56
2022/02/27 11:43:17;;;;;;;;;32.25;17.75;;;;;;;;5038966;28;51463;-51
2022/02/27 11:46:05;;;;;;;;;34.50;21.25;;;;;;;;5048160;28;51507;-57
2022/02/27 11:49:00;;;;;;;;;19.50;18.00;;;;;;;;5046513;28;51939;-55
2022/02/27 11:52:15;;;;;;;;;27.25;17.25;;;;;;;;5050997;28;52062;-49
2022/02/27 11:55:02;;;;;;;;;24.75;19.25;;;;;;;;5037321;28;51235;-55
2022/02/27 11:57:47;;;;;;;;;23.25;17.00;;;;;;;;5039074;28;51527;-50
2022/02/27 12:00:38;;;;;;;;;21.25;18.50;;;;;;;;5057323;28;51453;-53
2022/02/27 12:03:40;;;;;;;;;22.25;19.00;;;;;;;;5052089;28;51467;-54
2022/02/27 12:06:44;;;;;;;;;24.50;20.00;;;;;;;;5037623;28;51153;-51
2022/02/27 12:09:47;;;;;;;;;28.75;20.75;;;;;;;;5040214;28;51233;-53
2022/02/27 12:12:40;;;;;;;;;33.50;20.75;;;;;;;;5057067;28;51217;-58
2022/02/27 12:15:35;;;;;;;;;24.75;13.50;;;;;;;;5023978;28;51511;-53
2022/02/27 12:18:21;;;;;;;;;26.50;19.25;;;;;;;;5042023;28;51064;-57
2022/02/27 12:21:08;;;;;;;;;25.25;18.75;;;;;;;;5044622;28;51204;-52
2022/02/27 12:23:52;;;;;;;;;26.75;19.25;;;;;;;;5037324;28;51339;-50
2022/02/27 12:26:37;;;;;;;;;28.25;22.00;;;;;;;;5047412;28;52244;-51
2022/02/27 12:29:22;;;;;;;;;26.00;20.50;;;;;;;;5046545;28;51177;-55
2022/02/27 12:32:13;;;;;;;;;28.25;19.25;;;;;;;;5048050;28;51147;-53
2022/02/27 12:35:02;;;;;;;;;27.75;20.00;;;;;;;;5047635;28;51134;-53
2022/02/27 12:37:47;;;;;;;;;23.50;18.50;;;;;;;;5049790;28;52630;-54
2022/02/27 12:40:32;;;;;;;;;23.25;18.25;;;;;;;;5046250;28;51446;-52
2022/02/27 12:43:17;;;;;;;;;30.50;21.25;;;;;;;;5040790;28;51065;-52
2022/02/27 12:46:04;;;;;;;;;16.50;9.25;;;;;;;;5041099;28;51214;-57
2022/02/27 12:52:00;;;;;;;;;31.00;20.75;;;;;;;;5035720;28;51623;-55
2022/02/27 12:54:45;;;;;;;;;25.50;19.75;;;;;;;;5040822;28;51561;-52
2022/02/27 12:57:31;;;;;;;;;28.75;21.00;;;;;;;;5040533;28;51184;-58
2022/02/27 13:00:25;;;;;;;;;29.25;21.50;;;;;;;;5040168;28;51113;-54
2022/02/27 13:03:13;;;;;;;;;26.75;18.75;;;;;;;;5044974;28;51255;-51
2022/02/27 13:05:58;;;;;;;;;29.50;22.00;;;;;;;;5043216;28;51529;-55
2022/02/27 13:08:50;;;;;;;;;33.25;21.25;;;;;;;;5044374;28;51225;-56
2022/02/27 13:11:46;;;;;;;;;32.25;23.25;;;;;;;;5041847;28;51183;-58
2022/02/27 13:14:34;;;;;;;;;24.50;14.25;;;;;;;;5037230;28;51444;-56
2022/02/27 13:17:23;;;;;;;;;28.75;22.00;;;;;;;;5036960;28;51180;-53
2022/02/27 13:20:13;;;;;;;;;27.50;19.25;;;;;;;;5057425;28;51524;-54
2022/02/27 13:22:59;;;;;;;;;24.50;17.00;;;;;;;;5040140;28;51144;-51
2022/02/27 13:25:49;;;;;;;;;28.00;22.50;;;;;;;;5045272;28;52697;-54
2022/02/27 13:28:35;;;;;;;;;27.00;20.00;;;;;;;;5040562;28;51107;-48
2022/02/27 13:31:40;;;;;;;;;22.25;18.00;;;;;;;;5036493;28;51322;-56
2022/02/27 13:34:47;;;;;;;;;26.00;20.75;;;;;;;;5042239;28;51005;-51
2022/02/27 13:37:33;;;;;;;;;25.00;20.00;;;;;;;;5056215;28;51036;-53
2022/02/27 13:40:18;;;;;;;;;19.50;16.50;;;;;;;;5040677;28;51401;-56
2022/02/27 13:43:06;;;;;;;;;22.00;18.00;;;;;;;;5041562;28;51195;-55
2022/02/27 13:45:52;;;;;;;;;29.50;19.75;;;;;;;;5041381;28;51521;-57
2022/02/27 13:48:38;;;;;;;;;27.25;20.50;;;;;;;;5041431;28;51081;-52
2022/02/27 13:51:26;;;;;;;;;27.25;20.75;;;;;;;;5045297;28;51535;-54
2022/02/27 13:54:15;;;;;;;;;27.50;20.00;;;;;;;;5048657;28;51087;-49
2022/02/27 13:57:10;;;;;;;;;23.25;17.00;;;;;;;;5041791;28;51522;-55
2022/02/27 13:59:54;;;;;;;;;28.75;22.00;;;;;;;;5041139;28;51041;-54
2022/02/27 14:02:43;;;;;;;;;34.25;23.50;;;;;;;;5041346;28;51075;-55
2022/02/27 14:05:28;;;;;;;;;26.00;19.00;;;;;;;;5045203;28;51426;-52
2022/02/27 14:08:25;;;;;;;;;30.50;21.50;;;;;;;;5060856;28;51151;-53
2022/02/27 14:11:24;;;;;;;;;22.50;20.25;;;;;;;;5061060;28;51174;-52
2022/02/27 14:14:12;;;;;;;;;28.75;17.00;;;;;;;;5061272;28;50999;-54
2022/02/27 14:17:18;;;;;;;;;24.00;20.50;;;;;;;;5060744;28;51593;-57
2022/02/27 14:20:05;;;;;;;;;29.25;21.50;;;;;;;;5060600;28;51206;-54
2022/02/27 14:22:50;;;;;;;;;23.50;21.25;;;;;;;;5061235;28;51637;-55
2022/02/27 14:25:40;;;;;;;;;28.75;20.75;;;;;;;;5060776;28;51117;-54
2022/02/27 14:28:29;;;;;;;;;32.00;23.75;;;;;;;;5051727;28;51392;-53
2022/02/27 14:31:42;;;;;;;;;25.25;19.25;;;;;;;;5041997;28;51471;-50
2022/02/27 14:34:30;;;;;;;;;30.25;20.75;;;;;;;;5042935;28;51202;-52
2022/02/27 14:37:17;;;;;;;;;26.75;20.50;;;;;;;;5056688;28;51151;-56
2022/02/27 14:40:01;;;;;;;;;25.00;18.75;;;;;;;;5039957;28;51314;-52
2022/02/27 14:42:46;;;;;;;;;23.25;17.25;;;;;;;;5057673;28;51087;-52
2022/02/27 14:45:31;;;;;;;;;31.75;21.75;;;;;;;;5045359;28;52557;-54
2022/02/27 14:48:18;;;;;;;;;23.50;16.75;;;;;;;;5047966;28;51011;-54
2022/02/27 14:51:04;;;;;;;;;31.25;23.75;;;;;;;;5044775;28;51491;-51
2022/02/27 14:53:51;;;;;;;;;6.00;0.00;;;;;;;;5049600;28;51148;-54
2022/02/27 14:56:37;;;;;;;;;26.75;20.25;;;;;;;;5059238;28;51075;-56
2022/02/27 14:59:22;;;;;;;;;28.00;19.50;;;;;;;;5058644;28;51203;-55
2022/02/27 15:02:15;;;;;;;;;33.75;20.50;;;;;;;;5038112;28;51487;-55
2022/02/27 15:05:22;;;;;;;;;27.50;21.75;;;;;;;;5040143;28;51108;-56
2022/02/27 15:08:08;;;;;;;;;25.75;20.00;;;;;;;;5037465;28;51443;-52
2022/02/27 15:10:58;;;;;;;;;23.00;19.50;;;;;;;;5039177;28;51269;-52
2022/02/27 15:13:42;;;;;;;;;27.00;18.25;;;;;;;;5039707;28;51819;-53
2022/02/27 15:16:27;;;;;;;;;30.00;20.25;;;;;;;;5038761;28;51100;-50
2022/02/27 15:19:15;;;;;;;;;25.50;18.50;;;;;;;;5039019;28;51079;-55
2022/02/27 15:22:01;;;;;;;;;24.75;19.00;;;;;;;;5055876;28;51427;-46
2022/02/27 15:24:46;;;;;;;;;27.25;19.75;;;;;;;;5058887;28;51008;-52
2022/02/27 15:27:36;;;;;;;;;33.25;21.25;;;;;;;;5052159;28;51244;-55
2022/02/27 15:30:21;;;;;;;;;26.00;17.75;;;;;;;;5038967;28;51229;-50
2022/02/27 15:33:08;;;;;;;;;26.75;19.75;;;;;;;;5039134;28;51115;-52
2022/02/27 15:35:55;;;;;;;;;27.75;20.25;;;;;;;;5038314;28;51226;-50
2022/02/27 15:38:43;;;;;;;;;24.75;21.25;;;;;;;;5039928;28;51412;-51
2022/02/27 15:41:39;;;;;;;;;26.75;19.25;;;;;;;;5038558;28;51474;-55
2022/02/27 15:44:49;;;;;;;;;32.75;22.00;;;;;;;;5037627;28;51273;-50
2022/02/27 15:47:35;;;;;;;;;26.50;20.50;;;;;;;;5038030;28;52268;-54
2022/02/27 15:50:20;;;;;;;;;23.50;19.75;;;;;;;;5042803;28;51194;-52
2022/02/27 15:53:06;;;;;;;;;19.75;13.50;;;;;;;;5042638;28;51570;-47
2022/02/27 15:55:54;;;;;;;;;27.25;17.75;;;;;;;;5038487;28;51085;-55
2022/02/27 15:58:41;;;;;;;;;26.50;19.50;;;;;;;;5040031;28;51453;-51
2022/02/27 16:01:34;;;;;;;;;24.50;23.00;;;;;;;;5037036;28;51073;-47
2022/02/27 16:04:18;;;;;;;;;19.75;17.00;;;;;;;;5045390;28;51150;-53
2022/02/27 16:07:08;;;;;;;;;25.25;18.00;;;;;;;;5058282;28;51357;-50
2022/02/27 16:09:55;;;;;;;;;25.25;17.75;;;;;;;;5058771;28;51198;-55
2022/02/27 16:12:39;;;;;;;;;5.75;0.50;;;;;;;;5049275;28;51173;-48
2022/02/27 16:15:24;;;;;;;;;30.25;19.25;;;;;;;;5041459;28;51290;-58
2022/02/27 16:18:09;;;;;;;;;16.00;15.50;;;;;;;;5036904;28;51103;-55
2022/02/27 16:21:00;;;;;;;;;31.50;20.75;;;;;;;;5038226;28;51048;-56